Weather

Webcam

Metar / TAF

Zurich

  • LSZH 181820Z 17007KT 9999 FEW065TCU BKN120 BKN170 24/14 Q1015 NOSIG

  • TAF LSZH 181725Z 1818/1924 VRB03KT 9999 FEW060 SCT120 BKN180 TX30/1915Z TN13/1904Z TEMPO 1818/1820 SCT050TCU PROB30 TEMPO 1818/1821 15012G25KT BECMG 1819/1822 CAVOK BECMG 1910/1913 9999 FEW050 PROB40 TEMPO 1914/1922 SCT050TCU PROB30 TEMPO 1917/1922 23012G25KT 4500 TSRA SCT030CB

Dübendorf

  • LSMD 181920Z AUTO 15007KT 9999NDV FEW120 21/15 Q1015 RMK

  • TAF LSMD 181625Z 1817/1923 VRB03KT 9999 FEW050 SCT130 BKN200 PROB30 TEMPO 1817/1820 14015G25KT BECMG 1819/1822 CAVOK BECMG 1910/1913 9999 FEW050 PROB40 TEMPO 1913/1918 SCT050TCU PROB30 TEMPO 1917/1921 28012G25KT 4500 TSRA SCT030CB

St. Gallen

  • LSZR 181920Z AUTO 21003KT 160V280 9999 -RA FEW060TCU SCT080 OVC100 20/13 Q1016

  • TAF AMD LSZR 222054Z 2220/2224 CNL

Bern

  • LSZB 181920Z AUTO 14013KT 9999 FEW200 SCT230 //////TCU 21/15 Q1015

  • TAF AMD TAF AMD LSZB 222054Z 2220/2224 CNL

Locarno

  • LSZL 181920Z AUTO 27006KT 9999NDV NCD 24/16 Q1013 RMK

  • TAF AMD TAF AMD LSZL 150713Z 1509/1521 VRB03KT 9999 SCT050

Samedan

  • LSZS 181920Z AUTO 21006KT CAVOK 14/11 Q1021

  • TAF AMD LSZS 222054Z 2220/2224 CNL

Geneve

  • LSGG 181920Z 21008KT CAVOK 26/15 Q1014 NOSIG

  • TAF TAF LSGG 181725Z 1818/1924 22005KT CAVOK TX29/1915Z TN15/1904Z BECMG 1909/1911 9999 FEW040 BECMG 1912/1914 22010KT

Weather-Charts



Wind at FL50: 06:00z, 09:00z, 12:00z, 15:00z and 18:00z